Ogdensburg, Wisconsin
Current Conditions -  °F | °C
As of 4:15 PM on Thursday 18 Dec 2014 (Local Time) from KPCZ Reporting Station
Scattered Clouds Scattered Clouds  
Wind Chill: 28°   Ceiling: Unl
Heat Index: 28°   Visibility: 10mi
Dew Point: 19°   Wind: 0mph
Humidity: 71%   Direction: NA
Pressure: 30.24"   Gusts: NA
Location:  44.45°N, 89.03°W
Report Text: KPCZ 182215Z AUTO 00000KT 10SM SCT022 M02/M07 A3024 RMK AO2 T10241071
Loading
Personal Weather Stations






























Interactive Weather Map New forecast layout! Learn more

10-Day Weather Forecast

Advertisements
Track Severe Weather on mobile